sensor_id;sensor_type;location;lat;lon;timestamp;P1;durP1;ratioP1;P2;durP2;ratioP2
61673;SDS011;47573;43.832;5.974;2023-10-19T00:04:25;523.43;;;398.33;;
61673;SDS011;47573;43.832;5.974;2023-10-19T00:11:07;511.40;;;384.75;;
61673;SDS011;47573;43.832;5.974;2023-10-19T00:17:48;478.65;;;351.70;;
61673;SDS011;47573;43.832;5.974;2023-10-19T00:24:29;481.43;;;356.43;;
61673;SDS011;47573;43.832;5.974;2023-10-19T00:31:11;508.02;;;374.50;;
61673;SDS011;47573;43.832;5.974;2023-10-19T00:37:52;513.60;;;384.37;;
61673;SDS011;47573;43.832;5.974;2023-10-19T00:44:33;527.25;;;399.55;;
61673;SDS011;47573;43.832;5.974;2023-10-19T00:51:16;525.05;;;400.95;;
61673;SDS011;47573;43.832;5.974;2023-10-19T00:57:58;547.00;;;422.70;;
61673;SDS011;47573;43.832;5.974;2023-10-19T01:04:38;528.00;;;401.25;;
61673;SDS011;47573;43.832;5.974;2023-10-19T01:11:20;517.83;;;390.48;;
61673;SDS011;47573;43.832;5.974;2023-10-19T01:18:01;542.63;;;419.37;;
61673;SDS011;47573;43.832;5.974;2023-10-19T01:24:43;545.38;;;430.35;;
61673;SDS011;47573;43.832;5.974;2023-10-19T01:31:24;548.67;;;425.25;;
61673;SDS011;47573;43.832;5.974;2023-10-19T01:38:04;557.17;;;441.67;;
61673;SDS011;47573;43.832;5.974;2023-10-19T01:44:46;551.53;;;432.93;;
61673;SDS011;47573;43.832;5.974;2023-10-19T01:51:27;560.80;;;439.77;;
61673;SDS011;47573;43.832;5.974;2023-10-19T01:58:09;566.23;;;443.30;;
61673;SDS011;47573;43.832;5.974;2023-10-19T02:04:51;555.47;;;436.40;;
61673;SDS011;47573;43.832;5.974;2023-10-19T02:11:31;549.95;;;430.05;;
61673;SDS011;47573;43.832;5.974;2023-10-19T02:18:12;517.30;;;387.87;;
61673;SDS011;47573;43.832;5.974;2023-10-19T02:24:54;520.45;;;397.23;;
61673;SDS011;47573;43.832;5.974;2023-10-19T02:31:34;522.60;;;397.88;;
61673;SDS011;47573;43.832;5.974;2023-10-19T02:38:15;508.60;;;373.58;;
61673;SDS011;47573;43.832;5.974;2023-10-19T02:45:00;496.33;;;363.80;;
61673;SDS011;47573;43.832;5.974;2023-10-19T02:51:41;463.80;;;335.63;;
61673;SDS011;47573;43.832;5.974;2023-10-19T02:58:22;443.95;;;326.55;;
61673;SDS011;47573;43.832;5.974;2023-10-19T03:05:05;433.97;;;317.30;;
61673;SDS011;47573;43.832;5.974;2023-10-19T03:11:46;423.92;;;308.85;;
61673;SDS011;47573;43.832;5.974;2023-10-19T03:18:27;391.93;;;286.47;;
61673;SDS011;47573;43.832;5.974;2023-10-19T03:25:09;384.33;;;279.10;;
61673;SDS011;47573;43.832;5.974;2023-10-19T03:31:49;351.50;;;257.27;;
61673;SDS011;47573;43.832;5.974;2023-10-19T03:38:30;360.73;;;262.08;;
61673;SDS011;47573;43.832;5.974;2023-10-19T03:45:12;345.63;;;249.43;;
61673;SDS011;47573;43.832;5.974;2023-10-19T03:51:52;359.57;;;264.20;;
61673;SDS011;47573;43.832;5.974;2023-10-19T03:58:33;376.50;;;272.67;;
61673;SDS011;47573;43.832;5.974;2023-10-19T04:05:14;365.27;;;268.83;;
61673;SDS011;47573;43.832;5.974;2023-10-19T04:11:55;368.77;;;269.92;;
61673;SDS011;47573;43.832;5.974;2023-10-19T04:18:35;363.13;;;267.20;;
61673;SDS011;47573;43.832;5.974;2023-10-19T04:25:18;350.87;;;255.53;;
61673;SDS011;47573;43.832;5.974;2023-10-19T04:31:59;351.88;;;252.45;;
61673;SDS011;47573;43.832;5.974;2023-10-19T04:38:39;328.80;;;237.97;;
61673;SDS011;47573;43.832;5.974;2023-10-19T04:45:21;316.40;;;229.60;;
61673;SDS011;47573;43.832;5.974;2023-10-19T04:52:02;315.30;;;227.40;;
61673;SDS011;47573;43.832;5.974;2023-10-19T04:58:42;307.65;;;220.70;;
61673;SDS011;47573;43.832;5.974;2023-10-19T05:05:24;293.90;;;209.43;;
61673;SDS011;47573;43.832;5.974;2023-10-19T05:12:05;285.75;;;205.23;;
61673;SDS011;47573;43.832;5.974;2023-10-19T05:18:46;267.25;;;190.05;;
61673;SDS011;47573;43.832;5.974;2023-10-19T05:25:28;252.53;;;179.63;;
61673;SDS011;47573;43.832;5.974;2023-10-19T05:32:08;247.27;;;170.25;;
61673;SDS011;47573;43.832;5.974;2023-10-19T05:38:49;233.63;;;161.73;;
61673;SDS011;47573;43.832;5.974;2023-10-19T05:45:31;227.80;;;156.90;;
61673;SDS011;47573;43.832;5.974;2023-10-19T05:52:11;233.07;;;153.67;;
61673;SDS011;47573;43.832;5.974;2023-10-19T05:58:52;211.93;;;143.27;;
61673;SDS011;47573;43.832;5.974;2023-10-19T06:05:34;195.60;;;133.60;;
61673;SDS011;47573;43.832;5.974;2023-10-19T06:12:14;194.10;;;130.88;;
61673;SDS011;47573;43.832;5.974;2023-10-19T06:18:54;177.63;;;121.07;;
61673;SDS011;47573;43.832;5.974;2023-10-19T06:25:37;171.35;;;116.57;;
61673;SDS011;47573;43.832;5.974;2023-10-19T06:32:18;166.23;;;114.13;;
61673;SDS011;47573;43.832;5.974;2023-10-19T06:38:58;227.80;;;127.03;;
61673;SDS011;47573;43.832;5.974;2023-10-19T06:45:40;321.67;;;145.55;;
61673;SDS011;47573;43.832;5.974;2023-10-19T06:52:21;188.30;;;111.38;;
61673;SDS011;47573;43.832;5.974;2023-10-19T06:59:01;141.30;;;96.03;;
61673;SDS011;47573;43.832;5.974;2023-10-19T07:05:43;467.70;;;193.77;;
61673;SDS011;47573;43.832;5.974;2023-10-19T07:12:24;203.40;;;106.63;;
61673;SDS011;47573;43.832;5.974;2023-10-19T07:19:04;163.87;;;85.67;;
61673;SDS011;47573;43.832;5.974;2023-10-19T07:25:47;140.90;;;82.85;;
61673;SDS011;47573;43.832;5.974;2023-10-19T07:32:28;106.18;;;69.80;;
61673;SDS011;47573;43.832;5.974;2023-10-19T07:39:08;100.37;;;67.07;;
61673;SDS011;47573;43.832;5.974;2023-10-19T07:45:50;102.40;;;69.30;;
61673;SDS011;47573;43.832;5.974;2023-10-19T07:52:31;91.03;;;61.75;;
61673;SDS011;47573;43.832;5.974;2023-10-19T07:59:11;85.70;;;57.73;;
61673;SDS011;47573;43.832;5.974;2023-10-19T08:05:53;271.17;;;115.20;;
61673;SDS011;47573;43.832;5.974;2023-10-19T08:12:34;71.13;;;48.50;;
61673;SDS011;47573;43.832;5.974;2023-10-19T08:19:15;82.50;;;53.80;;
61673;SDS011;47573;43.832;5.974;2023-10-19T08:25:57;79.93;;;51.33;;
61673;SDS011;47573;43.832;5.974;2023-10-19T08:32:37;59.45;;;41.22;;
61673;SDS011;47573;43.832;5.974;2023-10-19T08:39:18;62.72;;;43.67;;
61673;SDS011;47573;43.832;5.974;2023-10-19T08:46:00;53.13;;;35.75;;
61673;SDS011;47573;43.832;5.974;2023-10-19T08:52:41;57.30;;;39.90;;
61673;SDS011;47573;43.832;5.974;2023-10-19T08:59:23;62.27;;;43.60;;
61673;SDS011;47573;43.832;5.974;2023-10-19T09:06:05;63.97;;;44.20;;
61673;SDS011;47573;43.832;5.974;2023-10-19T09:12:48;53.70;;;37.37;;
61673;SDS011;47573;43.832;5.974;2023-10-19T09:19:40;48.30;;;32.97;;
61673;SDS011;47573;43.832;5.974;2023-10-19T09:26:24;46.22;;;31.42;;
61673;SDS011;47573;43.832;5.974;2023-10-19T09:33:04;50.25;;;35.17;;
61673;SDS011;47573;43.832;5.974;2023-10-19T09:39:45;46.00;;;32.37;;
61673;SDS011;47573;43.832;5.974;2023-10-19T09:46:28;54.13;;;37.75;;
61673;SDS011;47573;43.832;5.974;2023-10-19T09:53:11;53.15;;;37.28;;
61673;SDS011;47573;43.832;5.974;2023-10-19T09:59:55;51.13;;;35.33;;
61673;SDS011;47573;43.832;5.974;2023-10-19T10:13:39;41.47;;;28.90;;
61673;SDS011;47573;43.832;5.974;2023-10-19T10:20:30;44.08;;;28.40;;
61673;SDS011;47573;43.832;5.974;2023-10-19T10:27:13;41.30;;;27.33;;
61673;SDS011;47573;43.832;5.974;2023-10-19T10:33:57;43.25;;;27.50;;
61673;SDS011;47573;43.832;5.974;2023-10-19T10:40:41;175.15;;;69.80;;
61673;SDS011;47573;43.832;5.974;2023-10-19T10:47:24;44.13;;;28.75;;
61673;SDS011;47573;43.832;5.974;2023-10-19T10:54:06;38.47;;;27.87;;
61673;SDS011;47573;43.832;5.974;2023-10-19T11:00:46;40.27;;;27.63;;
61673;SDS011;47573;43.832;5.974;2023-10-19T11:07:28;45.08;;;27.77;;
61673;SDS011;47573;43.832;5.974;2023-10-19T11:14:09;43.10;;;26.52;;
61673;SDS011;47573;43.832;5.974;2023-10-19T11:20:53;31.63;;;22.33;;
61673;SDS011;47573;43.832;5.974;2023-10-19T11:27:36;34.75;;;23.70;;
61673;SDS011;47573;43.832;5.974;2023-10-19T11:34:16;33.60;;;23.70;;
61673;SDS011;47573;43.832;5.974;2023-10-19T11:40:57;29.97;;;21.37;;
61673;SDS011;47573;43.832;5.974;2023-10-19T11:47:39;26.55;;;19.00;;
61673;SDS011;47573;43.832;5.974;2023-10-19T11:54:19;23.20;;;17.00;;
61673;SDS011;47573;43.832;5.974;2023-10-19T12:01:00;26.30;;;18.03;;
61673;SDS011;47573;43.832;5.974;2023-10-19T12:07:42;23.88;;;15.65;;
61673;SDS011;47573;43.832;5.974;2023-10-19T12:14:23;20.83;;;15.10;;
61673;SDS011;47573;43.832;5.974;2023-10-19T12:21:03;26.38;;;18.52;;
61673;SDS011;47573;43.832;5.974;2023-10-19T12:27:45;25.42;;;17.02;;
61673;SDS011;47573;43.832;5.974;2023-10-19T12:34:26;20.80;;;14.43;;
61673;SDS011;47573;43.832;5.974;2023-10-19T12:41:06;23.00;;;15.77;;
61673;SDS011;47573;43.832;5.974;2023-10-19T12:47:48;19.27;;;13.52;;
61673;SDS011;47573;43.832;5.974;2023-10-19T12:54:29;17.07;;;11.40;;
61673;SDS011;47573;43.832;5.974;2023-10-19T13:01:10;15.90;;;10.75;;
61673;SDS011;47573;43.832;5.974;2023-10-19T13:07:52;16.65;;;11.50;;
61673;SDS011;47573;43.832;5.974;2023-10-19T13:14:32;18.30;;;12.90;;
61673;SDS011;47573;43.832;5.974;2023-10-19T13:21:13;16.25;;;11.15;;
61673;SDS011;47573;43.832;5.974;2023-10-19T13:27:55;16.33;;;10.87;;
61673;SDS011;47573;43.832;5.974;2023-10-19T13:34:35;19.05;;;12.77;;
61673;SDS011;47573;43.832;5.974;2023-10-19T13:41:16;16.13;;;10.93;;
61673;SDS011;47573;43.832;5.974;2023-10-19T13:47:58;101.57;;;51.85;;
61673;SDS011;47573;43.832;5.974;2023-10-19T13:54:38;129.65;;;65.55;;
61673;SDS011;47573;43.832;5.974;2023-10-19T14:01:18;127.00;;;63.10;;
61673;SDS011;47573;43.832;5.974;2023-10-19T14:08:01;117.13;;;58.73;;
61673;SDS011;47573;43.832;5.974;2023-10-19T14:14:41;111.65;;;57.42;;
61673;SDS011;47573;43.832;5.974;2023-10-19T14:21:22;102.80;;;54.30;;
61673;SDS011;47573;43.832;5.974;2023-10-19T14:28:04;97.47;;;51.70;;
61673;SDS011;47573;43.832;5.974;2023-10-19T14:34:45;88.90;;;46.73;;
61673;SDS011;47573;43.832;5.974;2023-10-19T14:41:25;96.90;;;50.30;;
61673;SDS011;47573;43.832;5.974;2023-10-19T14:48:07;86.78;;;48.67;;
61673;SDS011;47573;43.832;5.974;2023-10-19T14:54:48;181.87;;;89.30;;
61673;SDS011;47573;43.832;5.974;2023-10-19T15:01:29;95.47;;;51.38;;
61673;SDS011;47573;43.832;5.974;2023-10-19T15:08:10;86.80;;;48.83;;
61673;SDS011;47573;43.832;5.974;2023-10-19T15:14:51;97.40;;;56.35;;
61673;SDS011;47573;43.832;5.974;2023-10-19T15:21:31;125.30;;;70.13;;
61673;SDS011;47573;43.832;5.974;2023-10-19T15:28:13;107.37;;;62.63;;
61673;SDS011;47573;43.832;5.974;2023-10-19T15:34:54;109.40;;;62.13;;
61673;SDS011;47573;43.832;5.974;2023-10-19T15:41:35;121.90;;;68.43;;
61673;SDS011;47573;43.832;5.974;2023-10-19T15:48:16;117.68;;;73.03;;
61673;SDS011;47573;43.832;5.974;2023-10-19T15:54:57;148.13;;;87.75;;
61673;SDS011;47573;43.832;5.974;2023-10-19T16:01:38;148.38;;;88.38;;
61673;SDS011;47573;43.832;5.974;2023-10-19T16:08:20;168.20;;;98.80;;
61673;SDS011;47573;43.832;5.974;2023-10-19T16:15:01;188.57;;;112.18;;
61673;SDS011;47573;43.832;5.974;2023-10-19T16:21:41;230.02;;;141.27;;
61673;SDS011;47573;43.832;5.974;2023-10-19T16:28:23;243.70;;;149.27;;
61673;SDS011;47573;43.832;5.974;2023-10-19T16:35:04;250.60;;;154.57;;
61673;SDS011;47573;43.832;5.974;2023-10-19T16:41:45;264.20;;;165.57;;
61673;SDS011;47573;43.832;5.974;2023-10-19T16:48:28;302.98;;;196.05;;
61673;SDS011;47573;43.832;5.974;2023-10-19T16:55:09;319.70;;;209.57;;
61673;SDS011;47573;43.832;5.974;2023-10-19T17:01:50;333.88;;;224.35;;
61673;SDS011;47573;43.832;5.974;2023-10-19T17:08:32;351.63;;;235.80;;
61673;SDS011;47573;43.832;5.974;2023-10-19T17:15:13;331.00;;;219.47;;
61673;SDS011;47573;43.832;5.974;2023-10-19T17:21:53;367.70;;;245.82;;
61673;SDS011;47573;43.832;5.974;2023-10-19T17:28:35;385.30;;;262.73;;
61673;SDS011;47573;43.832;5.974;2023-10-19T17:35:16;377.95;;;260.95;;
61673;SDS011;47573;43.832;5.974;2023-10-19T17:41:56;382.07;;;260.70;;
61673;SDS011;47573;43.832;5.974;2023-10-19T17:48:39;405.70;;;274.37;;
61673;SDS011;47573;43.832;5.974;2023-10-19T17:55:19;400.88;;;272.08;;
61673;SDS011;47573;43.832;5.974;2023-10-19T18:02:00;419.77;;;284.27;;
61673;SDS011;47573;43.832;5.974;2023-10-19T18:08:42;426.27;;;295.60;;
61673;SDS011;47573;43.832;5.974;2023-10-19T18:15:23;417.90;;;292.08;;
61673;SDS011;47573;43.832;5.974;2023-10-19T18:22:04;419.23;;;287.13;;
61673;SDS011;47573;43.832;5.974;2023-10-19T18:28:46;405.90;;;282.58;;
61673;SDS011;47573;43.832;5.974;2023-10-19T18:35:26;409.00;;;278.45;;
61673;SDS011;47573;43.832;5.974;2023-10-19T18:42:07;398.55;;;275.85;;
61673;SDS011;47573;43.832;5.974;2023-10-19T18:48:49;406.67;;;284.90;;
61673;SDS011;47573;43.832;5.974;2023-10-19T18:55:30;372.17;;;257.67;;
61673;SDS011;47573;43.832;5.974;2023-10-19T19:02:10;377.88;;;260.58;;
61673;SDS011;47573;43.832;5.974;2023-10-19T19:08:52;406.13;;;283.73;;
61673;SDS011;47573;43.832;5.974;2023-10-19T19:15:33;391.77;;;279.23;;
61673;SDS011;47573;43.832;5.974;2023-10-19T19:22:13;420.05;;;295.52;;
61673;SDS011;47573;43.832;5.974;2023-10-19T19:28:56;368.73;;;254.70;;
61673;SDS011;47573;43.832;5.974;2023-10-19T19:35:36;354.93;;;252.67;;
61673;SDS011;47573;43.832;5.974;2023-10-19T19:42:17;376.87;;;253.93;;
61673;SDS011;47573;43.832;5.974;2023-10-19T19:48:59;358.20;;;246.75;;
61673;SDS011;47573;43.832;5.974;2023-10-19T19:55:40;321.20;;;223.65;;
61673;SDS011;47573;43.832;5.974;2023-10-19T20:02:21;564.90;;;325.40;;
61673;SDS011;47573;43.832;5.974;2023-10-19T20:09:03;336.50;;;229.63;;
61673;SDS011;47573;43.832;5.974;2023-10-19T20:15:43;305.90;;;209.27;;
61673;SDS011;47573;43.832;5.974;2023-10-19T20:22:24;349.10;;;243.18;;
61673;SDS011;47573;43.832;5.974;2023-10-19T20:29:06;331.33;;;230.75;;
61673;SDS011;47573;43.832;5.974;2023-10-19T20:35:47;384.73;;;265.87;;
61673;SDS011;47573;43.832;5.974;2023-10-19T20:42:28;377.38;;;269.45;;
61673;SDS011;47573;43.832;5.974;2023-10-19T20:49:09;391.23;;;279.77;;
61673;SDS011;47573;43.832;5.974;2023-10-19T20:55:50;379.10;;;272.17;;
61673;SDS011;47573;43.832;5.974;2023-10-19T21:02:31;371.08;;;264.60;;
61673;SDS011;47573;43.832;5.974;2023-10-19T21:09:13;371.37;;;265.73;;
61673;SDS011;47573;43.832;5.974;2023-10-19T21:15:53;375.67;;;271.37;;
61673;SDS011;47573;43.832;5.974;2023-10-19T21:22:34;346.45;;;245.52;;
61673;SDS011;47573;43.832;5.974;2023-10-19T21:29:16;326.00;;;231.15;;
61673;SDS011;47573;43.832;5.974;2023-10-19T21:35:56;309.85;;;217.30;;
61673;SDS011;47573;43.832;5.974;2023-10-19T21:42:37;281.27;;;196.52;;
61673;SDS011;47573;43.832;5.974;2023-10-19T21:49:19;260.95;;;177.10;;
61673;SDS011;47573;43.832;5.974;2023-10-19T21:55:59;248.25;;;165.57;;
61673;SDS011;47573;43.832;5.974;2023-10-19T22:02:40;246.30;;;168.07;;
61673;SDS011;47573;43.832;5.974;2023-10-19T22:09:22;269.70;;;186.07;;
61673;SDS011;47573;43.832;5.974;2023-10-19T22:16:03;265.57;;;184.57;;
61673;SDS011;47573;43.832;5.974;2023-10-19T22:22:43;278.52;;;189.32;;
61673;SDS011;47573;43.832;5.974;2023-10-19T22:29:26;266.33;;;183.43;;
61673;SDS011;47573;43.832;5.974;2023-10-19T22:36:07;225.45;;;151.38;;
61673;SDS011;47573;43.832;5.974;2023-10-19T22:42:47;224.63;;;149.82;;
61673;SDS011;47573;43.832;5.974;2023-10-19T22:49:29;199.37;;;134.70;;
61673;SDS011;47573;43.832;5.974;2023-10-19T22:56:10;198.85;;;135.20;;
61673;SDS011;47573;43.832;5.974;2023-10-19T23:02:50;189.18;;;125.57;;
61673;SDS011;47573;43.832;5.974;2023-10-19T23:09:32;203.00;;;138.43;;
61673;SDS011;47573;43.832;5.974;2023-10-19T23:16:13;210.47;;;143.80;;
61673;SDS011;47573;43.832;5.974;2023-10-19T23:22:53;222.77;;;148.63;;
61673;SDS011;47573;43.832;5.974;2023-10-19T23:29:35;185.20;;;127.87;;
61673;SDS011;47573;43.832;5.974;2023-10-19T23:36:16;173.03;;;118.17;;
61673;SDS011;47573;43.832;5.974;2023-10-19T23:42:56;179.55;;;120.43;;
61673;SDS011;47573;43.832;5.974;2023-10-19T23:49:38;170.13;;;114.53;;
61673;SDS011;47573;43.832;5.974;2023-10-19T23:56:19;140.60;;;96.63;;
